Time;durP1;ratioP1;P1;durP2;ratioP2;P2;SDS_P1;SDS_P2;PMS_P1;PMS_P2;Temp;Humidity;BMP_temperature;BMP_pressure;BME280_temperature;BME280_humidity;BME280_pressure;Samples;Min_cycle;Max_cycle;Signal;HPM_P1;HPM_P2
2023/12/11 00:01:44;;;;;;;7.70;4.17;;;;;;;-0.02;100.00;99361.31;5091475;28;20202;-62
2023/12/11 00:04:12;;;;;;;7.13;3.37;;;;;;;0.10;100.00;99366.00;5090094;28;20212;-62
2023/12/11 00:06:39;;;;;;;3.63;2.73;;;;;;;0.07;100.00;99366.09;5089627;28;20728;-63
2023/12/11 00:09:06;;;;;;;6.43;3.17;;;;;;;0.13;100.00;99365.13;5091044;28;20243;-62
2023/12/11 00:11:33;;;;;;;15.50;3.37;;;;;;;0.18;100.00;99373.38;5090986;28;20202;-62
2023/12/11 00:14:00;;;;;;;2.20;1.70;;;;;;;0.17;100.00;99362.47;5091153;28;20198;-62
2023/12/11 00:16:28;;;;;;;2.83;2.43;;;;;;;0.10;100.00;99355.97;5090680;28;20200;-62
2023/12/11 00:18:55;;;;;;;6.57;4.03;;;;;;;0.08;100.00;99352.66;5090833;28;20202;-62
2023/12/11 00:21:22;;;;;;;6.70;3.27;;;;;;;0.09;100.00;99349.28;5090633;28;20293;-62
2023/12/11 00:23:48;;;;;;;7.50;2.17;;;;;;;0.06;100.00;99351.88;5090429;28;20198;-62
2023/12/11 00:26:15;;;;;;;6.57;3.50;;;;;;;0.08;100.00;99352.66;5090437;28;20202;-62
2023/12/11 00:28:46;;;;;;;4.30;1.63;;;;;;;0.11;100.00;99356.78;5090633;28;20229;-62
2023/12/11 00:31:13;;;;;;;5.13;1.90;;;;;;;0.13;100.00;99350.84;5090581;28;20197;-62
2023/12/11 00:33:42;;;;;;;3.20;2.07;;;;;;;-0.01;100.00;99357.91;5090548;28;20202;-62
2023/12/11 00:36:09;;;;;;;1.57;1.43;;;;;;;-0.02;100.00;99352.06;5090453;28;20252;-62
2023/12/11 00:38:36;;;;;;;4.40;3.10;;;;;;;0.09;100.00;99349.28;5090626;28;20190;-62
2023/12/11 00:41:03;;;;;;;4.27;2.57;;;;;;;-0.01;100.00;99347.88;5090004;28;20218;-62
2023/12/11 00:43:30;;;;;;;5.40;3.17;;;;;;;-0.02;100.00;99348.75;5090273;28;20198;-62
2023/12/11 00:45:57;;;;;;;4.50;2.13;;;;;;;-0.22;100.00;99340.88;5090453;28;20194;-62
2023/12/11 00:48:23;;;;;;;2.90;1.97;;;;;;;-0.22;100.00;99340.88;5090001;28;20210;-62
2023/12/11 00:50:52;;;;;;;4.00;2.23;;;;;;;-0.19;100.00;99340.78;5090219;28;20200;-62
2023/12/11 00:53:19;;;;;;;1.87;1.77;;;;;;;-0.36;100.00;99347.03;5089965;28;20712;-62
2023/12/11 00:55:46;;;;;;;1.83;1.67;;;;;;;-0.48;100.00;99342.28;5090096;28;20252;-62
2023/12/11 00:58:13;;;;;;;4.40;1.97;;;;;;;-0.52;100.00;99349.09;5089839;28;20670;-62
2023/12/11 01:00:39;;;;;;;3.90;2.23;;;;;;;-0.49;100.00;99353.22;5090223;28;20678;-62
2023/12/11 01:03:06;;;;;;;2.33;1.87;;;;;;;-0.50;100.00;99351.53;5089894;28;20584;-62
2023/12/11 01:05:33;;;;;;;1.83;1.47;;;;;;;-0.59;100.00;99339.19;5089648;28;20701;-62
2023/12/11 01:08:02;;;;;;;4.20;2.33;;;;;;;-0.65;100.00;99337.66;5089703;28;20689;-62
2023/12/11 01:10:28;;;;;;;3.77;2.77;;;;;;;-0.74;100.00;99342.88;5089355;28;20730;-62
2023/12/11 01:12:56;;;;;;;1.57;1.10;;;;;;;-0.71;100.00;99341.13;5089737;28;20601;-62
2023/12/11 01:15:23;;;;;;;4.10;2.87;;;;;;;-0.76;100.00;99345.41;5089631;28;20194;-62
2023/12/11 01:17:49;;;;;;;2.43;1.60;;;;;;;-0.69;100.00;99356.16;5089665;28;20671;-62
2023/12/11 01:20:16;;;;;;;2.57;2.37;;;;;;;-0.64;100.00;99356.06;5089649;28;20197;-62
2023/12/11 01:22:43;;;;;;;3.20;2.57;;;;;;;-0.55;100.00;99345.81;5089506;28;20674;-62
2023/12/11 01:25:11;;;;;;;3.57;1.80;;;;;;;-0.49;100.00;99336.44;5089262;28;20721;-62
2023/12/11 01:27:38;;;;;;;5.57;2.97;;;;;;;-0.60;100.00;99332.53;5089404;28;20213;-61
2023/12/11 01:30:07;;;;;;;0.90;0.70;;;;;;;-0.59;100.00;99324.13;5089210;28;20243;-62
2023/12/11 01:32:34;;;;;;;7.87;3.37;;;;;;;-0.70;100.00;99327.72;5089238;28;20198;-62
2023/12/11 01:35:01;;;;;;;2.70;2.43;;;;;;;-0.75;100.00;99324.50;5089353;28;20666;-62
2023/12/11 01:37:28;;;;;;;6.93;2.40;;;;;;;-0.66;100.00;99317.63;5089233;28;20206;-62
2023/12/11 01:39:54;;;;;;;7.90;3.27;;;;;;;-0.71;100.00;99321.03;5089269;28;20693;-62
2023/12/11 01:42:23;;;;;;;2.60;2.40;;;;;;;-0.77;100.00;99315.34;5088869;28;20205;-62
2023/12/11 01:44:50;;;;;;;2.70;2.50;;;;;;;-0.75;100.00;99306.09;5089156;28;20197;-62
2023/12/11 01:47:17;;;;;;;3.70;2.20;;;;;;;-0.82;100.00;99302.88;5088949;28;20222;-62
2023/12/11 01:49:44;;;;;;;4.40;2.27;;;;;;;-0.74;100.00;99301.03;5089106;28;20259;-62
2023/12/11 01:52:11;;;;;;;2.40;2.20;;;;;;;-0.70;100.00;99312.66;5089267;28;20202;-62
2023/12/11 01:54:39;;;;;;;2.60;2.27;;;;;;;-0.60;100.00;99317.47;5088668;28;20202;-62
2023/12/11 01:57:08;;;;;;;5.43;2.50;;;;;;;-0.53;100.00;99318.97;5089031;28;20198;-62
2023/12/11 01:59:37;;;;;;;2.57;2.03;;;;;;;-0.47;100.00;99313.81;5088932;28;20209;-62
2023/12/11 02:02:04;;;;;;;2.20;1.60;;;;;;;-0.49;100.00;99313.03;5088863;28;20206;-62
2023/12/11 02:04:31;;;;;;;7.73;2.07;;;;;;;-0.48;100.00;99307.13;5088934;28;20248;-62
2023/12/11 02:06:58;;;;;;;14.67;2.43;;;;;;;-0.49;100.00;99303.00;5088597;28;20209;-63
2023/12/11 02:09:27;;;;;;;3.33;2.23;;;;;;;-0.43;100.00;99302.00;5088620;28;20229;-62
2023/12/11 02:11:55;;;;;;;2.57;2.37;;;;;;;-0.38;100.00;99298.50;5089039;28;20202;-62
2023/12/11 02:14:22;;;;;;;3.27;1.70;;;;;;;-0.31;100.00;99297.50;5088550;28;20675;-62
2023/12/11 02:16:51;;;;;;;2.97;1.53;;;;;;;-0.40;100.00;99290.19;5088601;28;20694;-62
2023/12/11 02:19:18;;;;;;;0.73;0.73;;;;;;;-0.42;100.00;99286.88;5088541;28;20754;-62
2023/12/11 02:21:45;;;;;;;4.60;2.77;;;;;;;-0.44;100.00;99286.09;5088776;28;20204;-62
2023/12/11 02:24:19;;;;;;;3.80;2.17;;;;;;;-0.46;100.00;99281.13;5088580;28;20202;-62
2023/12/11 02:26:48;;;;;;;2.63;2.10;;;;;;;-0.46;100.00;99276.09;5088444;28;20193;-62
2023/12/11 02:29:15;;;;;;;1.40;1.30;;;;;;;-0.43;100.00;99274.38;5088653;28;20657;-62
2023/12/11 02:31:42;;;;;;;3.50;1.60;;;;;;;-0.38;100.00;99267.53;5088482;28;20572;-62
2023/12/11 02:34:09;;;;;;;2.57;2.00;;;;;;;-0.43;100.00;99275.22;5088842;28;20281;-61
2023/12/11 02:36:36;;;;;;;1.90;1.00;;;;;;;-0.34;100.00;99274.97;5088345;28;20583;-62
2023/12/11 02:39:03;;;;;;;2.63;2.43;;;;;;;-0.25;100.00;99272.22;5088306;28;20205;-62
2023/12/11 02:41:30;;;;;;;1.97;1.83;;;;;;;-0.15;100.00;99277.00;5088024;28;20212;-62
2023/12/11 02:43:59;;;;;;;4.03;1.77;;;;;;;-0.19;100.00;99275.47;5088647;28;20200;-62
2023/12/11 02:46:26;;;;;;;5.60;2.53;;;;;;;-0.17;100.00;99266.19;5088461;28;20572;-62
2023/12/11 02:48:53;;;;;;;1.73;1.60;;;;;;;-0.07;100.00;99267.59;5087756;28;20573;-63
2023/12/11 02:51:20;;;;;;;3.67;2.70;;;;;;;0.02;100.00;99262.31;5087069;28;20206;-62
2023/12/11 02:53:47;;;;;;;1.77;1.57;;;;;;;-0.11;100.00;99266.03;5087519;28;20202;-62
2023/12/11 02:56:13;;;;;;;8.43;1.33;;;;;;;-0.08;100.00;99265.97;5088061;28;20600;-62
2023/12/11 02:58:43;;;;;;;1.77;1.27;;;;;;;-0.07;100.00;99268.41;5088619;28;20197;-62
2023/12/11 03:01:11;;;;;;;1.27;1.20;;;;;;;-0.06;100.00;99274.25;5088135;28;20240;-62
2023/12/11 03:03:38;;;;;;;3.77;1.77;;;;;;;-0.03;100.00;99276.69;5088318;28;20201;-62
2023/12/11 03:06:06;;;;;;;1.97;1.30;;;;;;;-0.04;100.00;99268.34;5088047;28;20198;-62
2023/12/11 03:08:33;;;;;;;1.87;1.40;;;;;;;0.03;100.00;99278.22;5091115;28;20209;-62
2023/12/11 03:11:00;;;;;;;2.00;1.70;;;;;;;0.02;100.00;99269.88;5091842;28;20318;-62
2023/12/11 03:13:26;;;;;;;1.73;1.37;;;;;;;-0.05;100.00;99270.91;5092015;28;20194;-62
2023/12/11 03:15:53;;;;;;;0.90;0.90;;;;;;;-0.08;100.00;99273.50;5091966;28;20202;-62
2023/12/11 03:18:22;;;;;;;3.30;2.07;;;;;;;-0.01;100.00;99273.28;5091819;28;20194;-62
2023/12/11 03:20:48;;;;;;;0.77;0.77;;;;;;;0.04;100.00;99275.69;5091723;28;20204;-62
2023/12/11 03:23:16;;;;;;;3.17;1.10;;;;;;;0.05;100.00;99262.25;5091657;28;20202;-62
2023/12/11 03:25:42;;;;;;;2.17;1.80;;;;;;;-0.07;100.00;99268.41;5092209;28;20194;-62
2023/12/11 03:28:09;;;;;;;3.10;1.93;;;;;;;0.02;100.00;99257.28;5091809;28;20204;-62
2023/12/11 03:30:36;;;;;;;4.17;2.80;;;;;;;0.14;100.00;99264.50;5091515;28;20236;-62
2023/12/11 03:33:03;;;;;;;6.00;1.97;;;;;;;0.20;100.00;99264.38;5091589;28;20210;-62
2023/12/11 03:35:31;;;;;;;1.53;1.43;;;;;;;0.13;100.00;99260.34;5091729;28;20209;-62
2023/12/11 03:37:58;;;;;;;1.83;1.30;;;;;;;0.21;100.00;99266.00;5091684;28;20193;-62
2023/12/11 03:40:25;;;;;;;2.23;1.37;;;;;;;0.27;100.00;99261.69;5091415;28;20228;-62
2023/12/11 03:42:52;;;;;;;2.87;2.13;;;;;;;0.26;100.00;99263.34;5091525;28;20208;-62
2023/12/11 03:45:19;;;;;;;2.00;1.70;;;;;;;0.34;100.00;99271.50;5091603;28;20204;-62
2023/12/11 03:47:46;;;;;;;1.90;1.23;;;;;;;0.28;100.00;99268.34;5091503;28;20208;-62
2023/12/11 03:50:12;;;;;;;1.67;1.30;;;;;;;0.26;100.00;99270.06;5091293;28;20240;-62
2023/12/11 03:52:41;;;;;;;3.20;1.90;;;;;;;0.26;100.00;99260.81;5091442;28;20198;-62
2023/12/11 03:55:08;;;;;;;2.00;1.77;;;;;;;0.31;100.00;99263.22;5091805;28;20201;-62
2023/12/11 03:57:35;;;;;;;3.27;2.27;;;;;;;0.42;100.00;99256.22;5091695;28;20213;-62
2023/12/11 04:00:02;;;;;;;1.90;1.50;;;;;;;0.34;100.00;99263.16;5091096;28;20589;-62
2023/12/11 04:02:29;;;;;;;0.67;0.67;;;;;;;0.22;100.00;99267.63;5090806;28;20204;-62
2023/12/11 04:04:56;;;;;;;2.50;2.10;;;;;;;0.25;100.00;99269.25;5091266;28;20198;-62
2023/12/11 04:07:22;;;;;;;2.27;1.70;;;;;;;0.24;100.00;99265.09;5090957;28;20667;-62
2023/12/11 04:09:51;;;;;;;2.83;1.77;;;;;;;0.19;100.00;99270.25;5090745;28;20233;-62
2023/12/11 04:12:18;;;;;;;5.53;2.70;;;;;;;0.25;100.00;99261.72;5091060;28;20197;-62
2023/12/11 04:14:44;;;;;;;2.07;1.53;;;;;;;0.30;100.00;99269.13;5090725;28;20197;-62
2023/12/11 04:17:11;;;;;;;2.30;1.87;;;;;;;0.17;100.00;99264.41;5090789;28;20198;-62
2023/12/11 04:19:38;;;;;;;3.00;2.17;;;;;;;0.17;100.00;99271.13;5090321;28;20208;-62
2023/12/11 04:22:05;;;;;;;3.87;2.27;;;;;;;0.11;100.00;99266.28;5090774;28;20209;-62
2023/12/11 04:24:32;;;;;;;2.90;2.13;;;;;;;0.14;100.00;99261.16;5090416;28;20222;-62
2023/12/11 04:27:00;;;;;;;1.87;1.53;;;;;;;0.12;100.00;99253.69;5090528;28;20202;-62
2023/12/11 04:29:27;;;;;;;2.53;1.93;;;;;;;0.04;100.00;99250.53;5090551;28;20206;-62
2023/12/11 04:31:54;;;;;;;1.77;1.60;;;;;;;0.00;100.00;99243.97;5090507;28;20198;-61
2023/12/11 04:34:21;;;;;;;1.87;1.77;;;;;;;0.05;100.00;99256.41;5090281;28;20618;-62
2023/12/11 04:36:48;;;;;;;13.80;3.27;;;;;;;-0.02;100.00;99260.78;5090745;28;20587;-62
2023/12/11 04:39:15;;;;;;;3.43;2.10;;;;;;;-0.04;100.00;99254.94;5090926;28;20206;-62
2023/12/11 04:41:41;;;;;;;8.87;2.57;;;;;;;-0.04;100.00;99252.44;5090191;28;20198;-62
2023/12/11 04:44:10;;;;;;;5.50;3.43;;;;;;;-0.14;100.00;99258.59;5090193;28;20220;-62
2023/12/11 04:46:37;;;;;;;1.93;1.73;;;;;;;-0.16;100.00;99265.31;5090424;28;20204;-62
2023/12/11 04:49:03;;;;;;;0.97;0.97;;;;;;;-0.15;100.00;99259.44;5090165;28;20204;-62
2023/12/11 04:51:30;;;;;;;2.60;1.50;;;;;;;-0.17;100.00;99262.00;5090059;28;20237;-62
2023/12/11 04:53:58;;;;;;;2.20;1.83;;;;;;;-0.08;100.00;99276.00;5090113;28;20204;-62
2023/12/11 04:56:25;;;;;;;1.47;1.37;;;;;;;0.06;100.00;99266.44;5089988;28;20205;-62
2023/12/11 04:58:52;;;;;;;2.93;1.47;;;;;;;0.07;100.00;99268.06;5090113;28;20864;-62
2023/12/11 05:01:20;;;;;;;1.80;1.13;;;;;;;0.03;100.00;99261.47;5089916;28;20209;-62
2023/12/11 05:03:47;;;;;;;2.53;2.13;;;;;;;0.10;100.00;99260.44;5089884;28;20252;-62
2023/12/11 05:06:14;;;;;;;5.70;3.33;;;;;;;-0.01;100.00;99264.91;5089825;28;20204;-62
2023/12/11 05:08:41;;;;;;;2.13;1.87;;;;;;;0.03;100.00;99264.00;5089747;28;20287;-62
2023/12/11 05:11:07;;;;;;;4.77;2.87;;;;;;;0.01;100.00;99269.91;5089603;28;20727;-62
2023/12/11 05:13:34;;;;;;;1.33;1.20;;;;;;;0.02;100.00;99269.88;5089664;28;20595;-61
2023/12/11 05:16:02;;;;;;;4.23;2.67;;;;;;;0.02;100.00;99279.09;5089689;28;20225;-62
2023/12/11 05:18:30;;;;;;;11.23;1.13;;;;;;;-0.08;100.00;99270.97;5089723;28;20620;-62
2023/12/11 05:20:57;;;;;;;3.00;1.27;;;;;;;-0.02;100.00;99274.16;5089547;28;20293;-62
2023/12/11 05:23:24;;;;;;;1.43;1.33;;;;;;;-0.02;100.00;99276.66;5089442;28;20212;-62
2023/12/11 05:25:51;;;;;;;3.90;1.33;;;;;;;-0.08;100.00;99270.97;5089433;28;20847;-62
2023/12/11 05:28:18;;;;;;;1.60;1.17;;;;;;;0.06;100.00;99273.13;5089401;28;20220;-62
2023/12/11 05:30:45;;;;;;;3.60;1.90;;;;;;;0.14;100.00;99277.06;5088660;28;20237;-61
2023/12/11 05:33:12;;;;;;;1.60;1.50;;;;;;;0.24;100.00;99282.69;5089484;28;20209;-61
2023/12/11 05:35:40;;;;;;;4.77;2.27;;;;;;;0.26;100.00;99275.09;5089481;28;20603;-62
2023/12/11 05:38:07;;;;;;;2.13;1.70;;;;;;;0.32;100.00;99274.94;5089421;28;20204;-62
2023/12/11 05:40:34;;;;;;;3.50;1.57;;;;;;;0.37;100.00;99284.00;5089076;28;20581;-62
2023/12/11 05:43:01;;;;;;;1.40;1.13;;;;;;;0.46;100.00;99282.91;5088959;28;20197;-62
2023/12/11 05:45:28;;;;;;;4.73;1.53;;;;;;;0.47;100.00;99279.56;5089381;28;20206;-62
2023/12/11 05:47:55;;;;;;;1.80;1.47;;;;;;;0.44;100.00;99269.59;5089038;28;20230;-62
2023/12/11 05:50:22;;;;;;;1.70;1.47;;;;;;;0.52;100.00;99272.69;5088863;28;20233;-61
2023/12/11 05:52:50;;;;;;;0.97;0.97;;;;;;;0.54;100.00;99270.97;5089203;28;20687;-62
2023/12/11 05:55:17;;;;;;;1.47;1.37;;;;;;;0.63;100.00;99260.63;5088657;28;20222;-62
2023/12/11 05:57:44;;;;;;;0.63;0.60;;;;;;;0.62;100.00;99274.06;5089101;28;20575;-62
2023/12/11 06:00:12;;;;;;;2.23;1.77;;;;;;;0.60;100.00;99270.78;5088706;28;20594;-62
2023/12/11 06:02:40;;;;;;;3.30;2.03;;;;;;;0.61;100.00;99277.47;5089071;28;20198;-62
2023/12/11 06:05:08;;;;;;;3.00;2.10;;;;;;;0.71;100.00;99277.22;5088912;28;20673;-62
2023/12/11 06:07:35;;;;;;;2.00;1.63;;;;;;;0.68;100.00;99273.91;5088595;28;20241;-61
2023/12/11 06:10:04;;;;;;;2.13;1.77;;;;;;;0.70;100.00;99275.53;5088923;28;20194;-62
2023/12/11 06:12:32;;;;;;;2.90;1.83;;;;;;;0.87;100.00;99278.38;5088757;28;20206;-62
2023/12/11 06:14:59;;;;;;;1.63;1.50;;;;;;;0.85;100.00;99273.41;5088517;28;20637;-62
2023/12/11 06:17:26;;;;;;;1.00;0.97;;;;;;;0.92;100.00;99276.56;5088543;28;20670;-62
2023/12/11 06:19:53;;;;;;;2.13;1.60;;;;;;;0.92;100.00;99285.81;5088508;28;20311;-62
2023/12/11 06:22:20;;;;;;;7.23;2.90;;;;;;;0.98;100.00;99281.41;5088466;28;20470;-62
2023/12/11 06:24:47;;;;;;;1.30;1.20;;;;;;;0.96;100.00;99283.19;5088452;28;20228;-62
2023/12/11 06:27:15;;;;;;;1.27;1.17;;;;;;;1.00;100.00;99287.22;5088713;28;20716;-62
2023/12/11 06:29:42;;;;;;;2.77;1.73;;;;;;;1.06;100.00;99287.03;5088508;28;20205;-62
2023/12/11 06:32:09;;;;;;;2.50;1.23;;;;;;;1.13;100.00;99296.09;5088392;28;20730;-61
2023/12/11 06:34:36;;;;;;;0.90;0.70;;;;;;;1.23;100.00;99293.28;5088349;28;20205;-62
2023/12/11 06:37:03;;;;;;;4.40;1.90;;;;;;;1.22;100.00;99301.69;5088275;28;20633;-62
2023/12/11 06:39:31;;;;;;;1.93;1.67;;;;;;;1.23;100.00;99305.88;5088356;28;20591;-62
2023/12/11 06:41:58;;;;;;;3.37;1.70;;;;;;;1.21;100.00;99297.53;5090562;28;20288;-62
2023/12/11 06:44:26;;;;;;;0.97;0.83;;;;;;;1.26;100.00;99286.44;5092492;28;20217;-62
2023/12/11 06:46:53;;;;;;;1.47;1.27;;;;;;;1.28;100.00;99288.91;5092676;28;20198;-61
2023/12/11 06:49:20;;;;;;;2.80;1.90;;;;;;;1.36;100.00;99289.47;5092325;28;20679;-62
2023/12/11 06:51:46;;;;;;;3.77;1.47;;;;;;;1.45;100.00;99300.97;5092539;28;20233;-62
2023/12/11 06:54:13;;;;;;;1.00;0.90;;;;;;;1.48;100.00;99301.69;5092192;28;20203;-62
2023/12/11 06:56:40;;;;;;;2.93;2.07;;;;;;;1.53;100.00;99294.81;5092384;28;20198;-61
2023/12/11 06:59:07;;;;;;;0.93;0.93;;;;;;;1.53;100.00;99299.84;5092413;28;20588;-62
2023/12/11 07:01:36;;;;;;;5.27;2.70;;;;;;;1.52;100.00;99310.81;5092485;28;20205;-62
2023/12/11 07:04:03;;;;;;;6.30;1.60;;;;;;;1.61;100.00;99316.44;5092276;28;20197;-62
2023/12/11 07:06:30;;;;;;;2.17;1.23;;;;;;;1.63;100.00;99325.59;5092104;28;20809;-62
2023/12/11 07:08:57;;;;;;;3.53;1.30;;;;;;;1.66;100.00;99324.66;5092544;28;20224;-63
2023/12/11 07:11:25;;;;;;;2.20;1.83;;;;;;;1.66;100.00;99319.63;5091903;28;20236;-63
2023/12/11 07:13:52;;;;;;;1.53;1.17;;;;;;;1.65;100.00;99333.09;5092015;28;20223;-63
2023/12/11 07:16:19;;;;;;;2.03;1.30;;;;;;;1.67;100.00;99336.41;5092026;28;20271;-62
2023/12/11 07:18:48;;;;;;;5.47;1.90;;;;;;;1.65;100.00;99343.19;5091854;28;20202;-62
2023/12/11 07:21:15;;;;;;;2.97;1.37;;;;;;;1.68;100.00;99343.09;5090982;28;20208;-63
2023/12/11 07:23:42;;;;;;;2.23;1.43;;;;;;;1.66;100.00;99337.25;5090444;28;20648;-63
2023/12/11 07:26:09;;;;;;;2.70;1.93;;;;;;;1.61;100.00;99344.16;5090651;28;20214;-63
2023/12/11 07:28:37;;;;;;;2.03;1.83;;;;;;;1.53;100.00;99337.66;5092025;28;20202;-63
2023/12/11 07:31:05;;;;;;;0.70;0.70;;;;;;;1.49;100.00;99345.38;5091683;28;20226;-62
2023/12/11 07:33:32;;;;;;;2.80;1.37;;;;;;;1.49;100.00;99348.72;5091673;28;20801;-62
2023/12/11 07:36:00;;;;;;;3.30;1.80;;;;;;;1.55;100.00;99348.50;5091791;28;20218;-62
2023/12/11 07:38:27;;;;;;;3.23;1.93;;;;;;;1.49;100.00;99338.63;5091504;28;20208;-62
2023/12/11 07:40:55;;;;;;;0.93;0.87;;;;;;;1.47;100.00;99335.31;5091564;28;20430;-62
2023/12/11 07:43:22;;;;;;;3.07;1.30;;;;;;;1.59;100.00;99329.91;5091196;28;20204;-63
2023/12/11 07:45:49;;;;;;;1.53;1.40;;;;;;;1.72;100.00;99330.34;5091657;28;20204;-62
2023/12/11 07:48:16;;;;;;;3.50;2.23;;;;;;;1.69;100.00;99339.72;5091329;28;20763;-62
2023/12/11 07:50:43;;;;;;;4.20;2.40;;;;;;;1.71;100.00;99338.75;5091431;28;20198;-62
2023/12/11 07:53:11;;;;;;;2.57;1.80;;;;;;;1.74;100.00;99337.84;5090709;28;20198;-62
2023/12/11 07:55:38;;;;;;;1.83;1.43;;;;;;;1.81;100.00;99334.25;5091403;28;20190;-63
2023/12/11 07:58:06;;;;;;;5.33;1.90;;;;;;;1.77;100.00;99335.22;5091469;28;20204;-63
2023/12/11 08:00:33;;;;;;;2.80;1.93;;;;;;;1.78;100.00;99334.38;5091112;28;20582;-63
2023/12/11 08:03:00;;;;;;;1.67;1.13;;;;;;;1.82;100.00;99345.97;5091358;28;20198;-63
2023/12/11 08:05:27;;;;;;;5.03;2.80;;;;;;;1.76;100.00;99338.63;5091237;28;20198;-62
2023/12/11 08:07:54;;;;;;;1.80;1.40;;;;;;;1.91;100.00;99350.72;5091083;28;20198;-62
2023/12/11 08:10:22;;;;;;;1.97;1.40;;;;;;;1.95;100.00;99347.25;5090730;28;20229;-63
2023/12/11 08:12:52;;;;;;;2.40;2.17;;;;;;;1.93;100.00;99343.94;5090691;28;20229;-64
2023/12/11 08:15:19;;;;;;;3.80;1.83;;;;;;;1.99;100.00;99343.75;5090699;28;20198;-63
2023/12/11 08:17:46;;;;;;;1.83;1.50;;;;;;;2.04;100.00;99344.41;5090823;28;20694;-64
2023/12/11 08:20:16;;;;;;;2.97;1.57;;;;;;;2.03;100.00;99335.19;5090715;28;20671;-63
2023/12/11 08:22:43;;;;;;;0.80;0.80;;;;;;;2.16;100.00;99339.84;5091109;28;20216;-63
2023/12/11 08:25:13;;;;;;;3.57;1.80;;;;;;;2.22;100.00;99345.50;5090767;28;20194;-63
2023/12/11 08:27:42;;;;;;;1.17;1.07;;;;;;;2.16;100.00;99354.97;5090842;28;20667;-63
2023/12/11 08:30:10;;;;;;;2.00;1.80;;;;;;;2.18;100.00;99358.25;5090604;28;20198;-63
2023/12/11 08:32:40;;;;;;;2.43;1.50;;;;;;;2.06;100.00;99346.88;5091344;28;20233;-64
2023/12/11 08:35:08;;;;;;;3.03;1.97;;;;;;;2.01;100.00;99342.00;5090566;28;20579;-64
2023/12/11 08:37:35;;;;;;;3.83;2.43;;;;;;;2.08;100.00;99350.19;5090317;28;20663;-63
2023/12/11 08:40:03;;;;;;;2.03;1.53;;;;;;;2.13;100.00;99358.41;5090215;28;20209;-63
2023/12/11 08:42:32;;;;;;;3.90;1.83;;;;;;;2.12;100.00;99363.50;5090029;28;20305;-63
2023/12/11 08:45:00;;;;;;;1.93;1.73;;;;;;;2.11;100.00;99354.28;5090151;28;20208;-64
2023/12/11 08:47:27;;;;;;;3.00;1.83;;;;;;;1.98;100.00;99354.72;5090452;28;20205;-63
2023/12/11 08:49:55;;;;;;;3.63;1.53;;;;;;;2.07;100.00;99350.25;5090250;28;20202;-63
2023/12/11 08:52:21;;;;;;;1.30;1.10;;;;;;;2.17;100.00;99341.47;5090296;28;20587;-63
2023/12/11 08:54:50;;;;;;;1.53;1.43;;;;;;;2.24;100.00;99342.91;5090237;28;20218;-63
2023/12/11 08:57:17;;;;;;;2.00;1.70;;;;;;;2.36;100.00;99342.50;5090079;28;20210;-63
2023/12/11 08:59:44;;;;;;;4.67;2.17;;;;;;;2.34;100.00;99338.38;5090309;28;20202;-63
2023/12/11 09:02:12;;;;;;;3.07;1.70;;;;;;;2.43;100.00;99346.44;5089925;28;20667;-63
2023/12/11 09:04:39;;;;;;;4.33;2.10;;;;;;;2.45;100.00;99332.09;5088933;28;20628;-63
2023/12/11 09:07:09;;;;;;;4.73;2.07;;;;;;;2.53;100.00;99324.25;5090056;28;20266;-63
2023/12/11 09:09:37;;;;;;;3.47;2.07;;;;;;;2.61;100.00;99336.59;5089781;28;20194;-63
2023/12/11 09:12:04;;;;;;;2.87;1.50;;;;;;;2.69;100.00;99322.00;5089795;28;20225;-63
2023/12/11 09:14:31;;;;;;;2.33;2.13;;;;;;;2.70;100.00;99321.09;5089617;28;20209;-63
2023/12/11 09:16:58;;;;;;;3.37;1.97;;;;;;;2.66;100.00;99314.53;5089554;28;20583;-63
2023/12/11 09:19:26;;;;;;;2.47;1.80;;;;;;;2.76;100.00;99308.25;5089347;28;20208;-63
2023/12/11 09:21:53;;;;;;;1.90;1.73;;;;;;;2.81;100.00;99293.75;5089653;28;20201;-63
2023/12/11 09:24:20;;;;;;;3.33;2.33;;;;;;;2.94;100.00;99300.00;5089558;28;20198;-63
2023/12/11 09:26:47;;;;;;;3.97;2.33;;;;;;;3.07;100.00;99294.50;5089597;28;20658;-63
2023/12/11 09:29:15;;;;;;;3.33;2.57;;;;;;;3.07;100.00;99295.31;5089307;28;20201;-63
2023/12/11 09:31:43;;;;;;;1.93;1.80;;;;;;;3.19;100.00;99288.97;5089303;28;20229;-63
2023/12/11 09:34:10;;;;;;;3.77;2.43;;;;;;;3.19;100.00;99276.31;5089244;28;20194;-63
2023/12/11 09:36:38;;;;;;;6.47;2.93;;;;;;;3.35;100.00;99284.97;5089244;28;20525;-63
2023/12/11 09:39:07;;;;;;;4.37;2.43;;;;;;;3.42;100.00;99277.13;5089518;28;20201;-63
2023/12/11 09:41:35;;;;;;;3.50;1.93;;;;;;;3.42;100.00;99274.59;5089109;28;20221;-63
2023/12/11 09:44:03;;;;;;;3.60;2.83;;;;;;;3.44;100.00;99273.66;5088945;28;20212;-63
2023/12/11 09:46:34;;;;;;;5.03;2.63;;;;;;;3.59;100.00;99274.75;5089006;28;20198;-64
2023/12/11 09:49:00;;;;;;;8.87;3.57;;;;;;;3.59;100.00;99269.69;5089084;28;20686;-63
2023/12/11 09:51:27;;;;;;;3.47;3.17;;;;;;;3.69;100.00;99277.72;5089052;28;20233;-64
2023/12/11 09:53:57;;;;;;;4.30;2.43;;;;;;;3.80;100.00;99270.50;5088916;28;20198;-63
2023/12/11 09:56:26;;;;;;;5.50;3.10;;;;;;;3.81;100.00;99262.88;5088985;28;20196;-63
2023/12/11 09:58:52;;;;;;;2.27;1.77;;;;;;;3.94;100.00;99263.16;5088812;28;20204;-63
2023/12/11 10:01:20;;;;;;;5.67;1.60;;;;;;;4.07;100.00;99254.19;5088879;28;20201;-63
2023/12/11 10:03:46;;;;;;;2.83;2.43;;;;;;;4.25;100.00;99252.56;5088837;28;20234;-64
2023/12/11 10:06:13;;;;;;;7.57;3.63;;;;;;;4.24;100.00;99265.28;5089007;28;20204;-64
2023/12/11 10:08:42;;;;;;;2.47;2.27;;;;;;;4.42;100.00;99263.63;5088814;28;20200;-63
2023/12/11 10:11:12;;;;;;;5.27;2.60;;;;;;;4.35;100.00;99267.34;5088907;28;20212;-63
2023/12/11 10:13:39;;;;;;;3.83;2.70;;;;;;;4.39;100.00;99262.06;5088678;28;20718;-63
2023/12/11 10:16:09;;;;;;;5.07;3.13;;;;;;;4.56;100.00;99251.19;5088307;28;20197;-63
2023/12/11 10:18:48;;;;;;;3.87;2.87;;;;;;;4.50;100.00;99246.41;5088844;28;20202;-64
2023/12/11 10:21:15;;;;;;;7.73;3.83;;;;;;;4.71;100.00;99253.06;5088671;28;20197;-64
2023/12/11 10:23:42;;;;;;;4.97;3.13;;;;;;;4.91;100.00;99252.13;5088653;28;20204;-64
2023/12/11 10:26:10;;;;;;;6.07;2.83;;;;;;;5.04;100.00;99267.59;5088104;28;20221;-63
2023/12/11 10:28:37;;;;;;;5.40;3.27;;;;;;;5.14;100.00;99263.72;5088473;28;20198;-63
2023/12/11 10:31:05;;;;;;;6.03;3.07;;;;;;;5.16;100.00;99261.13;5088822;28;20217;-63
2023/12/11 10:33:33;;;;;;;4.37;3.27;;;;;;;5.17;100.00;99262.75;5088576;28;20294;-63
2023/12/11 10:36:11;;;;;;;6.57;3.37;;;;;;;5.15;100.00;99252.69;5088644;28;20266;-63
2023/12/11 10:38:40;;;;;;;4.07;2.93;;;;;;;5.35;100.00;99245.84;5088477;28;20677;-63
2023/12/11 10:41:07;;;;;;;5.53;3.03;;;;;;;5.57;100.00;99245.63;5088523;28;20285;-62
2023/12/11 10:43:42;;;;;;;5.17;3.57;;;;;;;5.64;100.00;99242.72;5088168;28;20206;-63
2023/12/11 10:46:09;;;;;;;7.23;3.10;;;;;;;5.53;100.00;99250.03;5088275;28;20254;-64
2023/12/11 10:48:36;;;;;;;3.77;2.73;;;;;;;5.66;100.00;99245.97;5088361;28;20259;-63
2023/12/11 10:51:03;;;;;;;4.87;2.87;;;;;;;5.81;100.00;99244.41;5088197;28;20201;-62
2023/12/11 10:53:30;;;;;;;7.87;3.37;;;;;;;5.77;100.00;99248.00;5088206;28;20233;-62
2023/12/11 10:55:59;;;;;;;10.63;3.90;;;;;;;5.73;100.00;99240.59;5088513;28;20205;-63
2023/12/11 10:58:27;;;;;;;5.07;3.70;;;;;;;5.86;100.00;99236.56;5088237;28;20221;-63
2023/12/11 11:00:59;;;;;;;4.90;3.30;;;;;;;5.78;100.00;99239.47;5088215;28;20205;-63
2023/12/11 11:03:27;;;;;;;4.33;2.93;;;;;;;5.80;100.00;99241.94;5088244;28;20198;-63
2023/12/11 11:05:55;;;;;;;7.17;3.10;;;;;;;5.88;100.00;99227.97;5088221;28;20198;-63
2023/12/11 11:08:27;;;;;;;4.90;3.00;;;;;;;6.03;100.00;99220.53;5087953;28;20289;-62
2023/12/11 11:11:00;;;;;;;7.13;3.53;;;;;;;6.12;100.00;99231.00;5088082;28;20222;-62
2023/12/11 11:13:33;;;;;;;5.57;3.13;;;;;;;6.06;100.00;99218.63;5088091;28;20229;-63
2023/12/11 11:16:03;;;;;;;4.30;2.57;;;;;;;6.38;100.00;99213.59;5088233;28;20229;-62
2023/12/11 11:18:30;;;;;;;5.67;3.27;;;;;;;6.91;100.00;99212.41;5088283;28;20204;-63
2023/12/11 11:21:12;;;;;;;5.50;2.77;;;;;;;7.18;100.00;99220.22;5087997;28;20467;-63
2023/12/11 11:23:43;;;;;;;4.53;2.60;;;;;;;7.10;100.00;99219.00;5086703;28;20201;-63
2023/12/11 11:26:32;;;;;;;7.90;3.23;;;;;;;7.40;100.00;99217.28;5088091;28;20198;-63
2023/12/11 11:28:58;;;;;;;10.30;4.20;;;;;;;7.59;100.00;99223.88;5089838;28;20238;-63
2023/12/11 11:31:48;;;;;;;4.53;3.63;;;;;;;7.91;100.00;99215.19;5091639;28;20675;-63
2023/12/11 11:34:15;;;;;;;7.57;3.23;;;;;;;7.91;100.00;99199.91;5091792;28;20197;-63